Time;durP1;ratioP1;P1;durP2;ratioP2;P2;SDS_P1;SDS_P2;PMS_P1;PMS_P2;Temp;Humidity;BMP_temperature;BMP_pressure;BME280_temperature;BME280_humidity;BME280_pressure;Samples;Min_cycle;Max_cycle;Signal;HPM_P1;HPM_P2
2022/05/16 00:01:54;;;;;;;10.48;5.22;;;16.30;99.90;;;;;;5079010;28;20465;-74
2022/05/16 00:04:20;;;;;;;14.25;6.07;;;16.30;99.90;;;;;;5084313;28;20510;-74
2022/05/16 00:06:47;;;;;;;10.63;4.88;;;16.30;99.90;;;;;;5085411;28;20081;-74
2022/05/16 00:09:12;;;;;;;13.70;5.38;;;16.30;99.90;;;;;;5086598;28;20109;-74
2022/05/16 00:11:41;;;;;;;12.25;5.18;;;16.30;99.90;;;;;;5083759;28;20028;-73
2022/05/16 00:14:07;;;;;;;15.48;5.47;;;16.30;99.90;;;;;;5085470;28;20044;-74
2022/05/16 00:16:33;;;;;;;12.93;5.15;;;16.20;99.90;;;;;;5090575;28;20058;-74
2022/05/16 00:18:59;;;;;;;14.10;5.57;;;16.20;99.90;;;;;;5090142;28;20044;-74
2022/05/16 00:21:25;;;;;;;13.02;5.40;;;16.20;99.90;;;;;;5086979;28;20379;-74
2022/05/16 00:23:50;;;;;;;11.20;5.30;;;16.10;99.90;;;;;;5090526;28;20375;-74
2022/05/16 00:26:16;;;;;;;8.60;4.90;;;16.10;99.90;;;;;;5084984;28;20115;-74
2022/05/16 00:28:42;;;;;;;14.02;5.72;;;16.10;99.90;;;;;;5098924;28;20395;-75
2022/05/16 00:31:08;;;;;;;10.35;5.07;;;16.10;99.90;;;;;;5090521;28;20043;-74
2022/05/16 00:33:33;;;;;;;11.15;5.55;;;16.00;99.90;;;;;;5082599;28;20539;-74
2022/05/16 00:35:59;;;;;;;10.95;5.25;;;16.00;99.90;;;;;;5085874;28;20040;-74
2022/05/16 00:38:25;;;;;;;16.00;5.75;;;16.00;99.90;;;;;;5081655;28;20252;-74
2022/05/16 00:40:53;;;;;;;12.82;5.38;;;16.00;99.90;;;;;;5087062;28;20044;-74
2022/05/16 00:43:40;;;;;;;11.98;4.88;;;16.00;99.90;;;;;;5086464;28;20096;-74
2022/05/16 00:46:05;;;;;;;10.23;5.00;;;16.00;99.90;;;;;;5087527;28;20044;-74
2022/05/16 00:48:31;;;;;;;10.50;4.80;;;16.00;99.90;;;;;;5094836;28;20039;-74
2022/05/16 00:50:57;;;;;;;12.27;5.00;;;15.90;99.90;;;;;;5098239;28;20032;-74
2022/05/16 00:53:22;;;;;;;10.27;4.60;;;15.90;99.90;;;;;;5092636;28;20060;-74
2022/05/16 00:55:51;;;;;;;13.23;5.20;;;15.90;99.90;;;;;;5085334;28;20051;-74
2022/05/16 00:58:17;;;;;;;9.93;4.78;;;15.90;99.90;;;;;;5095265;28;20050;-74
2022/05/16 01:00:44;;;;;;;12.32;4.82;;;15.90;99.90;;;;;;5091719;28;20472;-74
2022/05/16 01:06:08;;;;;;;13.30;5.25;;;15.90;99.90;;;;;;5082918;28;20123;-74
2022/05/16 01:08:38;;;;;;;15.00;4.93;;;15.90;99.90;;;;;;5085488;28;20067;-74
2022/05/16 01:11:11;;;;;;;9.90;4.57;;;15.90;99.90;;;;;;5096393;28;20135;-75
2022/05/16 01:13:37;;;;;;;12.23;5.25;;;15.80;99.90;;;;;;5093843;28;20043;-74
2022/05/16 01:16:03;;;;;;;14.98;5.10;;;15.80;99.90;;;;;;5091787;28;20116;-75
2022/05/16 01:18:29;;;;;;;11.43;5.10;;;15.80;99.90;;;;;;5090762;28;20044;-74
2022/05/16 01:21:32;;;;;;;12.73;4.57;;;15.80;99.90;;;;;;5085898;28;20631;-74
2022/05/16 01:24:07;;;;;;;10.90;4.45;;;15.80;99.90;;;;;;5085473;28;20548;-74
2022/05/16 01:26:34;;;;;;;13.52;4.88;;;15.80;99.90;;;;;;5097262;28;20043;-74
2022/05/16 01:29:01;;;;;;;12.23;4.32;;;15.70;99.90;;;;;;5085635;28;20049;-74
2022/05/16 01:31:27;;;;;;;11.93;4.65;;;15.70;99.90;;;;;;5093216;28;20040;-74
2022/05/16 01:33:53;;;;;;;9.55;4.43;;;15.70;99.90;;;;;;5084480;28;20048;-73
2022/05/16 01:36:19;;;;;;;8.98;4.13;;;15.70;99.90;;;;;;5085148;28;20047;-74
2022/05/16 01:38:45;;;;;;;13.40;4.82;;;15.70;99.90;;;;;;5089023;28;20550;-74
2022/05/16 01:41:14;;;;;;;10.90;4.47;;;15.80;99.90;;;;;;5083938;28;20050;-74
2022/05/16 01:43:42;;;;;;;9.40;4.43;;;15.70;99.90;;;;;;5087608;28;20080;-74
2022/05/16 01:46:09;;;;;;;13.38;4.63;;;15.70;99.90;;;;;;5090633;28;20039;-74
2022/05/16 01:48:35;;;;;;;11.27;4.65;;;15.60;99.90;;;;;;5089645;28;20044;-74
2022/05/16 01:51:04;;;;;;;9.77;4.40;;;15.60;99.90;;;;;;5097273;28;20436;-74
2022/05/16 01:53:31;;;;;;;11.27;4.53;;;15.60;99.90;;;;;;5088313;28;20051;-75
2022/05/16 01:55:57;;;;;;;10.02;4.13;;;15.60;99.90;;;;;;5088252;28;20062;-74
2022/05/16 01:58:23;;;;;;;10.82;4.20;;;15.50;99.90;;;;;;5098153;28;20056;-75
2022/05/16 02:00:49;;;;;;;12.00;4.28;;;15.50;99.90;;;;;;5095599;28;20044;-74
2022/05/16 02:03:15;;;;;;;10.63;4.72;;;15.50;99.90;;;;;;5090094;28;20085;-74
2022/05/16 02:05:42;;;;;;;8.93;3.95;;;15.50;99.90;;;;;;5089902;28;20037;-74
2022/05/16 02:08:08;;;;;;;11.23;4.20;;;15.50;99.90;;;;;;5088375;28;20040;-74
2022/05/16 02:10:34;;;;;;;11.88;4.60;;;15.50;99.90;;;;;;5089410;28;20754;-75
2022/05/16 02:13:05;;;;;;;10.57;4.20;;;15.50;99.90;;;;;;5088618;28;20075;-75
2022/05/16 02:15:33;;;;;;;12.57;4.57;;;15.50;99.90;;;;;;5094816;28;20040;-74
2022/05/16 02:18:00;;;;;;;9.65;4.05;;;15.40;99.90;;;;;;5086348;28;20051;-75
2022/05/16 02:20:29;;;;;;;12.68;4.47;;;15.40;99.90;;;;;;5090851;28;20040;-74
2022/05/16 02:25:43;;;;;;;12.05;4.30;;;15.40;99.90;;;;;;5084589;28;20044;-75
2022/05/16 02:28:14;;;;;;;12.57;4.30;;;15.40;99.90;;;;;;5091786;28;20048;-74
2022/05/16 02:30:41;;;;;;;11.30;4.13;;;15.30;99.90;;;;;;5088612;28;20036;-75
2022/05/16 02:33:08;;;;;;;;;;;15.40;99.90;;;;;;5085258;28;20468;-75
2022/05/16 02:35:34;;;;;;;10.20;4.05;;;15.30;99.90;;;;;;5083178;28;19927;-75
2022/05/16 02:38:00;;;;;;;9.15;3.90;;;15.30;99.90;;;;;;5086547;28;20040;-75
2022/05/16 02:40:27;;;;;;;12.43;3.93;;;15.30;99.90;;;;;;5089536;28;20044;-74
2022/05/16 02:42:53;;;;;;;12.52;4.82;;;15.30;99.90;;;;;;5087113;28;20052;-75
2022/05/16 02:45:19;;;;;;;11.07;4.20;;;15.30;99.90;;;;;;5089860;28;20062;-75
2022/05/16 02:47:45;;;;;;;10.30;4.03;;;15.30;99.90;;;;;;5087755;28;20097;-75
2022/05/16 02:50:11;;;;;;;10.60;3.90;;;15.20;99.90;;;;;;5090759;28;20043;-75
2022/05/16 02:52:37;;;;;;;9.57;4.22;;;15.20;99.90;;;;;;5092505;28;20122;-75
2022/05/16 02:55:05;;;;;;;9.82;4.00;;;15.20;99.90;;;;;;5090895;28;20048;-74
2022/05/16 02:57:31;;;;;;;10.93;3.90;;;15.20;99.90;;;;;;5088795;28;20135;-75
2022/05/16 02:59:58;;;;;;;10.65;4.53;;;15.10;99.90;;;;;;5088188;28;20040;-75
2022/05/16 03:02:24;;;;;;;10.65;4.13;;;15.10;99.90;;;;;;5086972;28;20040;-74
2022/05/16 03:04:49;;;;;;;8.60;3.72;;;15.10;99.90;;;;;;5090185;28;20081;-74
2022/05/16 03:07:15;;;;;;;12.65;4.07;;;15.10;99.90;;;;;;5088344;28;20040;-74
2022/05/16 03:09:41;;;;;;;8.57;3.88;;;15.10;99.90;;;;;;5090269;28;20499;-75
2022/05/16 03:12:07;;;;;;;8.88;3.85;;;15.10;99.90;;;;;;5085777;28;20123;-75
2022/05/16 03:14:33;;;;;;;9.32;4.13;;;15.10;99.90;;;;;;5091564;28;20036;-75
2022/05/16 03:16:59;;;;;;;10.48;4.00;;;15.10;99.90;;;;;;5085344;28;20044;-74
2022/05/16 03:19:25;;;;;;;9.10;4.10;;;15.10;99.90;;;;;;5086646;28;20101;-75
2022/05/16 03:21:50;;;;;;;10.73;4.45;;;15.00;99.90;;;;;;5085807;28;20115;-75
2022/05/16 03:24:16;;;;;;;10.82;4.00;;;15.00;99.90;;;;;;5087265;28;20055;-75
2022/05/16 03:26:42;;;;;;;9.13;3.58;;;15.00;99.90;;;;;;5086918;28;20568;-74
2022/05/16 03:29:09;;;;;;;10.60;4.07;;;15.00;99.90;;;;;;5087400;28;20100;-75
2022/05/16 03:31:35;;;;;;;10.35;3.95;;;14.90;99.90;;;;;;5089634;28;20097;-75
2022/05/16 03:34:01;;;;;;;10.20;3.97;;;15.00;99.90;;;;;;5086326;28;20043;-75
2022/05/16 03:36:26;;;;;;;7.93;3.55;;;14.90;99.90;;;;;;5080575;28;20048;-75
2022/05/16 03:41:36;;;;;;;9.52;4.07;;;14.90;99.90;;;;;;5088467;28;20075;-75
2022/05/16 03:44:02;;;;;;;11.90;4.18;;;14.80;99.90;;;;;;5086252;28;20144;-75
2022/05/16 03:46:28;;;;;;;10.48;4.00;;;14.80;99.90;;;;;;5087745;28;20479;-75
2022/05/16 03:48:54;;;;;;;11.40;4.20;;;14.80;99.90;;;;;;5087760;28;20066;-75
2022/05/16 03:51:20;;;;;;;9.52;4.07;;;14.80;99.90;;;;;;5087170;28;20483;-75
2022/05/16 03:53:48;;;;;;;10.07;4.03;;;14.80;99.90;;;;;;5088266;28;20415;-75
2022/05/16 03:56:20;;;;;;;11.05;4.13;;;14.80;99.90;;;;;;5090344;28;20505;-75
2022/05/16 03:58:46;;;;;;;9.85;3.90;;;14.80;99.90;;;;;;5085683;28;20069;-75
2022/05/16 04:01:12;;;;;;;9.18;4.20;;;14.80;99.90;;;;;;5085755;28;20054;-75
2022/05/16 04:03:38;;;;;;;11.95;3.88;;;14.80;99.90;;;;;;5087649;28;20052;-75
2022/05/16 04:06:04;;;;;;;9.95;3.90;;;14.80;99.90;;;;;;5084873;28;20123;-74
2022/05/16 04:08:31;;;;;;;9.52;4.10;;;14.80;99.90;;;;;;5084544;28;20114;-74
2022/05/16 04:10:58;;;;;;;12.25;4.10;;;14.80;99.90;;;;;;5089521;28;20055;-75
2022/05/16 04:13:24;;;;;;;10.45;4.10;;;14.80;99.90;;;;;;5088757;28;20511;-75
2022/05/16 04:15:49;;;;;;;11.80;4.10;;;14.80;99.90;;;;;;5086155;28;20054;-75
2022/05/16 04:18:15;;;;;;;10.07;4.00;;;14.80;99.90;;;;;;5089027;28;20043;-75
2022/05/16 04:20:40;;;;;;;7.97;3.55;;;14.80;99.90;;;;;;5087144;28;20040;-75
2022/05/16 04:23:09;;;;;;;8.57;3.95;;;14.80;99.90;;;;;;5082720;28;20051;-75
2022/05/16 04:25:37;;;;;;;10.48;4.20;;;14.80;99.90;;;;;;5078617;28;20047;-75
2022/05/16 04:28:04;;;;;;;11.40;4.15;;;14.90;99.90;;;;;;5085224;28;20056;-75
2022/05/16 04:30:30;;;;;;;15.25;4.68;;;14.90;99.90;;;;;;5087851;28;20043;-75
2022/05/16 04:32:55;;;;;;;9.75;3.65;;;14.90;99.90;;;;;;5086334;28;20055;-75
2022/05/16 04:35:21;;;;;;;10.80;3.78;;;14.80;99.90;;;;;;5086628;28;21980;-75
2022/05/16 04:37:47;;;;;;;10.80;4.00;;;14.80;99.90;;;;;;5080891;28;20125;-75
2022/05/16 04:40:14;;;;;;;10.20;3.83;;;14.90;99.90;;;;;;5087815;28;20044;-75
2022/05/16 04:42:40;;;;;;;9.25;3.97;;;14.90;99.90;;;;;;5094340;28;20561;-75
2022/05/16 04:45:13;;;;;;;9.20;3.47;;;14.90;99.90;;;;;;5084460;28;20044;-75
2022/05/16 04:47:39;;;;;;;10.45;3.80;;;15.00;99.90;;;;;;5087454;28;20036;-75
2022/05/16 04:50:05;;;;;;;7.80;3.83;;;15.00;99.90;;;;;;5084314;28;20467;-75
2022/05/16 04:52:32;;;;;;;12.30;4.20;;;15.00;99.90;;;;;;5088060;28;20389;-75
2022/05/16 04:54:59;;;;;;;9.32;4.28;;;15.00;99.90;;;;;;5082234;28;20310;-75
2022/05/16 04:57:24;;;;;;;9.60;3.70;;;15.10;99.90;;;;;;5086740;28;20063;-76
2022/05/16 04:59:50;;;;;;;9.23;3.40;;;15.10;99.90;;;;;;5082209;28;20182;-75
2022/05/16 05:02:16;;;;;;;12.77;4.07;;;15.20;99.90;;;;;;5078817;28;20395;-75
2022/05/16 05:04:43;;;;;;;10.50;3.92;;;15.20;99.90;;;;;;5085221;28;20048;-75
2022/05/16 05:07:09;;;;;;;13.15;3.88;;;15.20;99.90;;;;;;5083480;28;20044;-75
2022/05/16 05:14:31;;;;;;;11.68;4.03;;;15.30;99.90;;;;;;5085795;28;20038;-76
2022/05/16 05:15:08;;;;;;;7.63;3.45;;;15.40;99.90;;;;;;5091841;28;20052;-75
2022/05/16 05:17:34;;;;;;;9.80;4.47;;;15.40;99.90;;;;;;5086941;28;22548;-76
2022/05/16 05:20:00;;;;;;;11.98;4.18;;;15.40;99.90;;;;;;5086138;28;21439;-75
2022/05/16 05:22:25;;;;;;;10.40;4.05;;;15.50;99.90;;;;;;5085043;28;20093;-75
2022/05/16 05:24:51;;;;;;;11.30;4.50;;;15.50;99.90;;;;;;5081816;28;20097;-75
2022/05/16 05:27:17;;;;;;;9.38;3.85;;;15.50;99.90;;;;;;5083362;28;20126;-75
2022/05/16 05:29:42;;;;;;;10.00;3.65;;;15.50;99.90;;;;;;5087191;28;20148;-75
2022/05/16 05:32:09;;;;;;;13.57;4.60;;;15.50;99.90;;;;;;5088772;28;20399;-76
2022/05/16 05:34:37;;;;;;;12.38;4.60;;;15.50;99.90;;;;;;5078683;28;20054;-75
2022/05/16 05:37:04;;;;;;;12.10;3.63;;;15.60;99.90;;;;;;5082179;28;20496;-76
2022/05/16 05:39:31;;;;;;;8.15;3.70;;;15.70;99.90;;;;;;5080058;28;20056;-76
2022/05/16 05:41:57;;;;;;;11.30;3.60;;;15.80;99.90;;;;;;5077133;28;21963;-76
2022/05/16 05:44:24;;;;;;;10.27;3.65;;;15.90;99.90;;;;;;5096675;28;20517;-76
2022/05/16 05:46:49;;;;;;;12.45;4.38;;;15.90;99.90;;;;;;5082459;28;20431;-76
2022/05/16 05:49:15;;;;;;;9.98;3.83;;;16.10;99.90;;;;;;5083370;28;20043;-76
2022/05/16 05:51:41;;;;;;;10.73;4.05;;;16.10;99.90;;;;;;5077986;28;20040;-75
2022/05/16 05:54:07;;;;;;;14.13;4.80;;;16.20;99.90;;;;;;5080566;28;20079;-75
2022/05/16 05:56:33;;;;;;;14.40;4.07;;;16.30;99.90;;;;;;5081107;28;20055;-76
2022/05/16 05:58:59;;;;;;;9.88;3.88;;;16.40;99.90;;;;;;5069787;28;20170;-75
2022/05/16 06:01:26;;;;;;;8.80;3.58;;;16.50;99.90;;;;;;5082409;28;20028;-76
2022/05/16 06:03:52;;;;;;;12.20;4.00;;;16.60;99.90;;;;;;5084532;28;20085;-76
2022/05/16 06:06:18;;;;;;;10.18;4.00;;;16.60;99.90;;;;;;5088447;28;20058;-76
2022/05/16 06:08:43;;;;;;;12.48;4.00;;;16.70;99.90;;;;;;5105479;28;20091;-76
2022/05/16 06:11:09;;;;;;;12.23;4.13;;;16.80;99.90;;;;;;5093363;28;20048;-75
2022/05/16 06:13:35;;;;;;;14.85;4.40;;;16.80;99.90;;;;;;5095189;28;20406;-75
2022/05/16 06:16:00;;;;;;;10.77;4.22;;;16.90;99.90;;;;;;5091007;28;20044;-76
2022/05/16 06:18:26;;;;;;;12.63;4.07;;;16.90;99.90;;;;;;5090060;28;20044;-75
2022/05/16 06:20:52;;;;;;;15.05;3.60;;;17.00;99.90;;;;;;5088561;28;20040;-75
2022/05/16 06:23:18;;;;;;;10.38;3.75;;;16.90;99.90;;;;;;5096756;28;20130;-75
2022/05/16 06:25:44;;;;;;;13.25;3.90;;;16.90;99.90;;;;;;5091753;28;20052;-75
2022/05/16 06:28:17;;;;;;;11.98;4.10;;;16.90;99.90;;;;;;5094100;28;20101;-76
2022/05/16 06:30:45;;;;;;;16.17;4.90;;;17.00;99.90;;;;;;5090610;28;20047;-75
2022/05/16 06:33:12;;;;;;;13.10;4.25;;;17.20;99.90;;;;;;5084190;28;20040;-75
2022/05/16 06:35:48;;;;;;;11.75;4.40;;;17.30;99.90;;;;;;5095316;28;20108;-76
2022/05/16 06:38:27;;;;;;;12.05;4.07;;;17.40;99.90;;;;;;5087283;28;20078;-75
2022/05/16 06:40:57;;;;;;;9.48;3.88;;;17.50;99.90;;;;;;5087972;28;20075;-75
2022/05/16 06:43:27;;;;;;;12.60;4.07;;;17.60;99.90;;;;;;5087191;28;20488;-76
2022/05/16 06:45:53;;;;;;;13.70;3.53;;;17.70;99.90;;;;;;5076532;28;20043;-76
2022/05/16 06:48:19;;;;;;;9.60;3.20;;;17.80;99.90;;;;;;5090793;28;20056;-75
2022/05/16 06:50:47;;;;;;;12.43;3.55;;;17.80;99.90;;;;;;5087392;28;20128;-75
2022/05/16 06:53:16;;;;;;;10.95;3.88;;;17.90;99.90;;;;;;5085535;28;20117;-75
2022/05/16 06:55:42;;;;;;;9.55;3.88;;;17.90;99.90;;;;;;5080265;28;20040;-75
2022/05/16 06:58:08;;;;;;;13.23;3.63;;;18.00;99.90;;;;;;5100316;28;20594;-75
2022/05/16 07:00:34;;;;;;;10.93;3.53;;;18.10;99.90;;;;;;5087108;28;20036;-75
2022/05/16 07:03:03;;;;;;;12.15;3.90;;;18.20;99.90;;;;;;5081544;28;20377;-76
2022/05/16 07:05:29;;;;;;;11.27;3.55;;;18.30;99.90;;;;;;5081800;28;20043;-75
2022/05/16 07:07:57;;;;;;;9.98;4.05;;;18.40;99.90;;;;;;5084551;28;20044;-75
2022/05/16 07:10:24;;;;;;;9.80;3.80;;;18.50;99.90;;;;;;5089326;28;20085;-75
2022/05/16 07:12:50;;;;;;;10.48;3.88;;;18.50;99.90;;;;;;5086680;28;20040;-75
2022/05/16 07:15:16;;;;;;;12.80;3.67;;;18.50;99.90;;;;;;5092059;28;20035;-73
2022/05/16 07:17:42;;;;;;;13.77;3.90;;;18.60;99.90;;;;;;5095300;28;20075;-73
2022/05/16 07:20:10;;;;;;;9.32;3.78;;;18.70;99.90;;;;;;5110827;28;20044;-74
2022/05/16 07:22:39;;;;;;;10.20;3.60;;;18.80;99.90;;;;;;5101944;28;20036;-74
2022/05/16 07:25:05;;;;;;;10.60;3.60;;;18.80;99.90;;;;;;5079287;28;20055;-73
2022/05/16 07:30:15;;;;;;;8.48;3.45;;;19.00;99.90;;;;;;5100227;28;20040;-72
2022/05/16 07:32:43;;;;;;;11.60;3.55;;;19.00;99.90;;;;;;5087876;28;20066;-72
2022/05/16 07:35:17;;;;;;;11.13;3.58;;;19.10;99.90;;;;;;5099379;28;20484;-72
2022/05/16 07:37:47;;;;;;;11.25;4.05;;;19.20;99.50;;;;;;5092775;28;20061;-73
2022/05/16 07:40:14;;;;;;;8.95;3.63;;;19.30;99.30;;;;;;5084956;28;20222;-72
2022/05/16 07:42:40;;;;;;;8.73;3.40;;;19.40;99.30;;;;;;5091518;28;20043;-73
2022/05/16 07:45:07;;;;;;;9.63;3.47;;;19.40;99.40;;;;;;5110817;28;20262;-73
2022/05/16 07:47:33;;;;;;;7.78;3.40;;;19.60;99.80;;;;;;5109728;28;20048;-71
2022/05/16 07:50:02;;;;;;;10.98;3.30;;;19.70;99.40;;;;;;5096792;28;20039;-73
2022/05/16 07:52:29;;;;;;;10.35;3.67;;;19.80;99.30;;;;;;5093795;28;20048;-74
2022/05/16 07:54:55;;;;;;;12.43;3.72;;;19.90;99.00;;;;;;5102221;28;20040;-72
2022/05/16 07:57:21;;;;;;;11.85;3.75;;;20.10;98.30;;;;;;5106674;28;20570;-72
2022/05/16 07:59:47;;;;;;;12.27;3.93;;;20.00;97.50;;;;;;5090976;28;20055;-72
2022/05/16 08:02:14;;;;;;;11.15;3.83;;;20.00;97.80;;;;;;5086032;28;20033;-72
2022/05/16 08:04:40;;;;;;;12.02;3.65;;;20.00;98.20;;;;;;5087019;28;20047;-73
2022/05/16 08:07:06;;;;;;;9.65;3.35;;;20.00;97.50;;;;;;5104864;28;20482;-71
2022/05/16 08:12:43;;;;;;;11.40;3.33;;;20.10;98.70;;;;;;5106849;28;20044;-73
2022/05/16 08:15:09;;;;;;;9.10;3.55;;;20.30;98.70;;;;;;5072862;28;20051;-72
2022/05/16 08:17:35;;;;;;;9.55;3.60;;;20.30;98.40;;;;;;5089491;28;20055;-73
2022/05/16 08:20:04;;;;;;;11.30;3.45;;;20.40;97.20;;;;;;5090488;28;20079;-73
2022/05/16 08:22:33;;;;;;;9.73;3.13;;;20.50;98.00;;;;;;5089261;28;20052;-73
2022/05/16 08:25:03;;;;;;;8.57;3.75;;;20.60;97.60;;;;;;5086382;28;20069;-73
2022/05/16 08:27:29;;;;;;;9.50;3.30;;;20.70;97.20;;;;;;5088109;28;20082;-73
2022/05/16 08:29:54;;;;;;;15.40;3.45;;;20.80;97.10;;;;;;5087353;28;20047;-73
2022/05/16 08:32:23;;;;;;;11.85;3.63;;;20.90;96.50;;;;;;5091941;28;20602;-73
2022/05/16 08:34:50;;;;;;;9.70;3.55;;;21.00;96.80;;;;;;5094358;28;20048;-73
2022/05/16 08:40:03;;;;;;;8.68;3.30;;;21.30;95.80;;;;;;5109867;28;20398;-73
2022/05/16 08:42:53;;;;;;;11.52;3.40;;;21.40;95.90;;;;;;5110342;28;20150;-73
2022/05/16 08:45:32;;;;;;;9.45;3.33;;;21.60;95.30;;;;;;5084883;28;20060;-74
2022/05/16 08:48:10;;;;;;;10.70;3.15;;;21.70;94.30;;;;;;5077626;28;20045;-72
2022/05/16 08:50:46;;;;;;;8.68;3.03;;;21.80;95.30;;;;;;5075088;28;20048;-73
2022/05/16 08:53:23;;;;;;;8.73;3.30;;;21.90;93.70;;;;;;5075976;28;20561;-70
2022/05/16 08:55:52;;;;;;;9.45;3.40;;;22.00;93.20;;;;;;5077431;28;20314;-72
2022/05/16 08:58:24;;;;;;;8.30;3.63;;;22.10;92.80;;;;;;5073132;28;20166;-71
2022/05/16 09:01:18;;;;;;;9.80;3.00;;;22.20;91.60;;;;;;5074677;28;20108;-73
2022/05/16 09:03:54;;;;;;;11.02;3.35;;;22.30;91.00;;;;;;5075246;28;20051;-72
2022/05/16 09:06:52;;;;;;;8.45;3.00;;;22.40;90.70;;;;;;5072244;28;20103;-75
2022/05/16 09:09:22;;;;;;;9.73;3.30;;;22.40;90.20;;;;;;5081367;28;20039;-73
2022/05/16 09:12:05;;;;;;;9.52;3.55;;;22.50;91.60;;;;;;5092495;28;20713;-75
2022/05/16 09:14:48;;;;;;;8.68;3.20;;;22.60;88.50;;;;;;5109022;28;20047;-74
2022/05/16 09:17:38;;;;;;;9.07;3.17;;;22.60;86.00;;;;;;5087864;28;20047;-74
2022/05/16 09:20:33;;;;;;;7.75;3.30;;;22.70;86.30;;;;;;5101035;28;20046;-71
2022/05/16 09:23:29;;;;;;;11.90;3.67;;;22.80;89.80;;;;;;5080755;28;20039;-74
2022/05/16 09:26:16;;;;;;;15.02;3.92;;;22.80;91.60;;;;;;5109808;28;20035;-74
2022/05/16 09:28:53;;;;;;;13.18;3.50;;;22.90;90.90;;;;;;5098905;28;20096;-73
2022/05/16 09:31:26;;;;;;;12.85;3.90;;;22.90;90.70;;;;;;5070512;28;20127;-73
2022/05/16 09:33:55;;;;;;;12.32;3.38;;;23.10;86.10;;;;;;5084003;28;20449;-74
2022/05/16 09:36:30;;;;;;;8.68;3.58;;;23.10;88.40;;;;;;5093119;28;20036;-74
2022/05/16 09:38:56;;;;;;;10.40;3.13;;;23.30;89.10;;;;;;5097628;28;20525;-74
2022/05/16 09:41:37;;;;;;;12.13;3.33;;;23.30;87.50;;;;;;5096050;28;20112;-73
2022/05/16 09:44:27;;;;;;;9.50;3.08;;;23.40;87.40;;;;;;5090497;28;20075;-75
2022/05/16 09:47:18;;;;;;;10.52;3.70;;;23.50;86.90;;;;;;5095039;28;20394;-75
2022/05/16 09:49:46;;;;;;;9.48;2.97;;;23.60;90.70;;;;;;5072751;28;20365;-76
2022/05/16 09:52:21;;;;;;;9.55;3.50;;;23.60;90.70;;;;;;5079762;28;20491;-75
2022/05/16 09:55:06;;;;;;;8.25;3.17;;;23.80;82.60;;;;;;5082814;28;20048;-74
2022/05/16 09:57:40;;;;;;;8.95;3.03;;;23.80;83.60;;;;;;5096752;28;20051;-75
2022/05/16 10:00:17;;;;;;;8.73;3.17;;;23.90;79.10;;;;;;5095184;28;20063;-74
2022/05/16 10:02:53;;;;;;;12.10;3.60;;;24.00;89.10;;;;;;5092250;28;20101;-74
2022/05/16 10:05:26;;;;;;;9.85;3.40;;;24.10;83.80;;;;;;5107069;28;20039;-73
2022/05/16 10:08:00;;;;;;;11.65;3.78;;;24.10;74.40;;;;;;5092276;28;20036;-73
2022/05/16 10:10:37;;;;;;;11.35;3.53;;;24.20;73.50;;;;;;5096656;28;20047;-72
2022/05/16 10:13:03;;;;;;;9.75;3.78;;;24.20;73.40;;;;;;5099921;28;20479;-71
2022/05/16 10:15:31;;;;;;;13.45;3.72;;;24.30;73.70;;;;;;5095363;28;20052;-70
2022/05/16 10:17:59;;;;;;;12.70;3.80;;;24.40;74.10;;;;;;5093801;28;20380;-71
2022/05/16 10:20:34;;;;;;;12.13;5.05;;;24.50;74.00;;;;;;5096725;28;20063;-71
2022/05/16 10:23:04;;;;;;;10.18;3.60;;;24.40;71.40;;;;;;5102166;28;20032;-73
2022/05/16 10:25:43;;;;;;;10.05;3.80;;;24.40;74.30;;;;;;5105822;28;20067;-73
2022/05/16 10:28:17;;;;;;;11.57;3.75;;;24.40;73.40;;;;;;5106365;28;20043;-73
2022/05/16 10:33:34;;;;;;;11.65;3.78;;;24.50;76.30;;;;;;5099607;28;20056;-72
2022/05/16 10:36:08;;;;;;;13.30;3.90;;;24.60;74.40;;;;;;5090733;28;20060;-74
2022/05/16 10:38:37;;;;;;;10.38;3.63;;;24.60;75.20;;;;;;5090715;28;20048;-73
2022/05/16 10:41:10;;;;;;;10.90;3.70;;;24.70;74.40;;;;;;5085548;28;20058;-73
2022/05/16 10:43:54;;;;;;;8.48;3.72;;;24.90;73.50;;;;;;5091955;28;20088;-74
2022/05/16 10:46:31;;;;;;;7.63;3.45;;;24.90;80.60;;;;;;5105503;28;20561;-73
2022/05/16 10:49:09;;;;;;;14.45;4.05;;;25.10;72.40;;;;;;5102120;28;20481;-73
2022/05/16 10:51:52;;;;;;;10.38;3.70;;;25.30;70.90;;;;;;5092311;28;20108;-72
2022/05/16 10:54:24;;;;;;;10.65;3.60;;;25.50;68.20;;;;;;5099024;28;20055;-72
2022/05/16 10:57:02;;;;;;;11.75;3.40;;;25.50;65.80;;;;;;5082010;28;20075;-72
2022/05/16 10:59:53;;;;;;;11.00;3.75;;;25.60;68.40;;;;;;5110411;28;20043;-72
2022/05/16 11:02:22;;;;;;;9.13;3.78;;;25.60;64.90;;;;;;5092687;28;20054;-72
2022/05/16 11:05:15;;;;;;;11.32;3.60;;;25.60;63.60;;;;;;5095471;28;20670;-72
2022/05/16 11:07:43;;;;;;;9.90;3.78;;;25.60;65.70;;;;;;5088936;28;20448;-71
2022/05/16 11:10:25;;;;;;;8.85;3.40;;;25.60;66.00;;;;;;5082793;28;20108;-71
2022/05/16 11:13:06;;;;;;;11.73;4.47;;;25.60;69.50;;;;;;5107691;28;20483;-73
2022/05/16 11:15:38;;;;;;;14.30;3.95;;;25.50;68.80;;;;;;5091252;28;20093;-72
2022/05/16 11:18:29;;;;;;;8.02;3.47;;;25.50;65.00;;;;;;5097657;28;20043;-73
2022/05/16 11:21:03;;;;;;;7.88;3.40;;;25.40;63.60;;;;;;5101506;28;20090;-74
2022/05/16 11:23:49;;;;;;;12.07;3.78;;;25.30;64.70;;;;;;5103214;28;20043;-73
2022/05/16 11:26:25;;;;;;;;;;;25.20;71.00;;;;;;5109219;28;20101;-73
2022/05/16 11:29:18;;;;;;;17.63;4.10;;;25.00;70.60;;;;;;5104455;28;20370;-72
2022/05/16 11:31:58;;;;;;;11.30;4.00;;;24.90;73.20;;;;;;5083178;28;20044;-76
2022/05/16 11:34:52;;;;;;;8.15;3.60;;;24.80;75.00;;;;;;5086620;28;20055;-73
2022/05/16 11:37:29;;;;;;;9.27;3.63;;;24.70;74.50;;;;;;5089092;28;20558;-72
2022/05/16 11:40:08;;;;;;;9.82;3.90;;;24.60;77.30;;;;;;5086676;28;20441;-72
2022/05/16 11:42:34;;;;;;;10.40;4.00;;;24.60;78.00;;;;;;5092573;28;20038;-72
2022/05/16 11:45:27;;;;;;;9.13;3.70;;;24.50;81.00;;;;;;5101401;28;20052;-72
2022/05/16 11:48:21;;;;;;;9.98;4.00;;;24.40;83.00;;;;;;5091841;28;20114;-72
2022/05/16 11:51:08;;;;;;;13.20;4.05;;;24.40;88.70;;;;;;5096635;28;20039;-72
2022/05/16 11:53:47;;;;;;;;;;;24.30;90.00;;;;;;5106465;28;20044;-73
2022/05/16 12:02:11;;;;;;;8.38;3.42;;;24.00;90.40;;;;;;5098036;28;20063;-74
2022/05/16 12:04:45;;;;;;;7.53;3.15;;;24.00;88.60;;;;;;5103700;28;20058;-73
2022/05/16 12:07:29;;;;;;;8.98;3.95;;;24.00;86.50;;;;;;5095194;28;20052;-72
2022/05/16 12:10:00;;;;;;;10.00;3.42;;;23.90;85.90;;;;;;5108738;28;20786;-71
2022/05/16 12:12:36;;;;;;;9.15;3.60;;;23.90;88.10;;;;;;5093048;28;20422;-71
2022/05/16 12:15:17;;;;;;;12.23;3.70;;;23.90;91.30;;;;;;5083162;28;20479;-72
2022/05/16 12:17:59;;;;;;;10.23;3.60;;;23.90;91.80;;;;;;5101830;28;20079;-72
2022/05/16 12:20:43;;;;;;;10.88;3.70;;;23.80;90.50;;;;;;5091096;28;20052;-70
2022/05/16 12:23:11;;;;;;;9.15;3.70;;;23.80;90.30;;;;;;5099916;28;20056;-69
2022/05/16 12:25:38;;;;;;;9.75;3.53;;;23.80;92.20;;;;;;5094111;28;20548;-71
2022/05/16 12:28:13;;;;;;;11.85;3.83;;;23.80;92.50;;;;;;5101953;28;20051;-72
2022/05/16 12:30:41;;;;;;;7.15;3.45;;;23.80;93.90;;;;;;5093382;28;20098;-73
2022/05/16 12:33:32;;;;;;;7.30;3.70;;;23.80;93.00;;;;;;5108306;28;20123;-73
2022/05/16 12:35:58;;;;;;;12.13;3.65;;;23.80;94.80;;;;;;5071405;28;20166;-76
2022/05/16 12:38:28;;;;;;;9.45;3.70;;;23.80;94.00;;;;;;5107688;28;20039;-75
2022/05/16 12:41:02;;;;;;;8.02;3.55;;;23.80;93.60;;;;;;5091117;28;20039;-76
2022/05/16 12:43:49;;;;;;;9.27;3.65;;;23.90;93.80;;;;;;5097801;28;20408;-74
2022/05/16 12:46:35;;;;;;;8.60;3.38;;;24.00;93.10;;;;;;5107968;28;20054;-76
2022/05/16 12:49:23;;;;;;;11.45;4.00;;;24.00;95.40;;;;;;5098526;28;20073;-77
2022/05/16 12:52:10;;;;;;;9.32;3.20;;;24.00;91.80;;;;;;5090626;28;20051;-78
2022/05/16 12:54:45;;;;;;;7.97;3.47;;;24.10;94.30;;;;;;5100226;28;20039;-77
2022/05/16 12:57:39;;;;;;;5.95;3.05;;;24.10;94.20;;;;;;5102963;28;20138;-79
2022/05/16 13:00:27;;;;;;;8.32;3.58;;;24.20;93.30;;;;;;5100034;28;20518;-79
2022/05/16 13:03:14;;;;;;;10.27;3.50;;;24.20;93.40;;;;;;5080242;28;20043;-78
2022/05/16 13:06:04;;;;;;;12.68;3.75;;;24.20;93.70;;;;;;5084439;28;20437;-79
2022/05/16 13:08:47;;;;;;;8.15;3.45;;;24.20;95.40;;;;;;5100816;27;20036;-79
2022/05/16 13:11:23;;;;;;;8.98;3.47;;;24.10;94.20;;;;;;5095680;28;20686;-79
2022/05/16 13:13:58;;;;;;;9.67;3.47;;;24.10;93.10;;;;;;5092459;28;20097;-77
2022/05/16 13:16:29;;;;;;;11.02;3.50;;;24.10;94.10;;;;;;5091394;28;20040;-77
2022/05/16 13:18:59;;;;;;;10.90;3.15;;;24.00;93.30;;;;;;5084767;28;20048;-80
2022/05/16 13:21:34;;;;;;;7.40;3.00;;;24.00;92.10;;;;;;5091742;28;20081;-80
2022/05/16 13:24:00;;;;;;;6.95;3.63;;;24.10;93.10;;;;;;5089816;28;20051;-79
2022/05/16 13:29:23;;;;;;;7.22;3.28;;;24.00;91.50;;;;;;5089138;28;20048;-82
2022/05/16 13:31:53;;;;;;;8.98;3.30;;;24.10;93.20;;;;;;5109352;28;20067;-81